[ ตารางข้อมูล ] [ Min-Max ] [ วันนี้4 ] [ วันนี้2 ] [ เทียบ3วัน A ] [ เทียบ4วัน B ]   

วันนี้2   [ ◀ ช่วงเก่ากว่า ] [ ช่วงที่ 257 ] [ ช่วงใหม่กว่า ▶ ] [ ล่าสุด ]    [ 3 ชั่วโมง ] [ 6 ชั่วโมง ] [ 12 ชั่วโมง ] [ 24 ชั่วโมง ]   วันนี้2

อุณภูมิตู้ Knockdown4529  ราย 3 ชั่วโมง  ที่วัดได้ ในช่วงวันเวลา 05/04/2026 (01:46) ถึง 05/04/2026 (04:46) 
ความชื้นในตู้ Knockdown4529  ราย 3 ชั่วโมง  ที่วัดได้ ในช่วงวันเวลา 05/04/2026 (01:46) ถึง 05/04/2026 (04:46) 

 
DS18B20SHTC3 
IDDate d/m/Y & Timedata1
สูง
data2
ต่ำ
data3
นอก
temp
pcb
hum
pcb
Time
 8930  05/04/2026 04:44:42  26.9  27.0  24.9  26.9  70.7  04:44 
 8929  05/04/2026 04:40:00  26.9  27.0  24.7  26.8  70.6  04:40 
 8928  05/04/2026 04:35:18  26.9  27.0  24.4  26.9  70.6  04:35 
 8927  05/04/2026 04:30:36  26.9  27.1  24.4  27.0  70.7  04:30 
 8926  05/04/2026 04:25:54  27.0  27.1  24.5  26.9  70.6  04:25 
 8925  05/04/2026 04:21:12  27.0  27.1  24.7  27.0  70.7  04:21 
 8924  05/04/2026 04:16:31  27.0  27.1  24.8  27.0  70.7  04:16 
 8923  05/04/2026 04:11:49  27.1  27.1  24.6  27.0  70.6  04:11 
 8922  05/04/2026 04:07:07  27.1  27.2  24.4  27.0  70.6  04:07 
 8921  05/04/2026 04:02:25  27.1  27.2  24.4  27.0  70.5  04:02 
 8920  05/04/2026 03:57:43  27.1  27.2  24.6  27.1  70.6  03:57 
 8919  05/04/2026 03:53:02  27.1  27.2  24.7  26.9  70.6  03:53 
 8918  05/04/2026 03:48:20  27.1  27.2  24.6  27.1  70.6  03:48 
 8917  05/04/2026 03:43:36  27.1  27.3  24.5  27.2  70.6  03:43 
 8916  05/04/2026 03:38:55  27.2  27.3  24.6  27.1  70.6  03:38 
 8915  05/04/2026 03:34:13  27.2  27.4  24.8  27.2  70.6  03:34 
 8914  05/04/2026 03:29:32  27.2  27.4  24.5  27.2  70.5  03:29 
 8913  05/04/2026 03:24:50  27.3  27.4  24.5  27.3  70.5  03:24 
 8912  05/04/2026 03:20:08  27.3  27.4  24.9  27.3  70.5  03:20 
 8911  05/04/2026 03:15:27  27.3  27.4  25.0  27.4  70.5  03:15 
 8910  05/04/2026 03:10:45  27.4  27.5  24.9  27.2  70.3  03:10 
 8909  05/04/2026 03:06:04  27.4  27.5  24.8  27.4  70.4  03:06 
 8908  05/04/2026 03:01:22  27.4  27.5  24.7  27.4  70.5  03:01 
 8907  05/04/2026 02:56:40  27.4  27.6  24.8  27.5  70.5  02:56 

Data every 5 minute.


ใช้เวลาประมวลผล 0.00199 วินาที